Terminal Aerodrome Forecast
Issued by NWS Melbourne, FL

Home | Current Version | Previous Version | Text Only | Print | Product List | Glossary On
Versions: 1 2 3 4 5 6 7 8 9 10 11 12 13 14 15 16 17 18 19 20 21 22 23 24 25 26 27
000
FTUS42 KMLB 281507 AAD
TAFMLB
TAF AMD
KMLB 281507Z 2815/2912 23014KT P6SM VCSH SCT015 BKN020 BKN040
     FM281600 21014G20KT P6SM VCTS SCT035CB BKN060
      TEMPO 2818/2821 4SM TSRA SCT020CB BKN030 BKN070
     FM290000 22005KT P6SM SCT020 BKN080 BKN250=

USA.gov is the U.S. government's official web portal to all federal, state and local government web resources and services.